Terminal Aerodrome Forecast
Issued by NWS

Current Version | Previous Version | Text Only | Print | Product List | Glossary Off
Versions: 1 2 3 4 5 6 7 8 9 10 11 12 13 14 15 16

000
FTUS41 KPBZ 192329
TAFHLG
TAF
KHLG 192329Z 2000/2024 28011G19KT P6SM FEW035
     FM200400 32006KT P6SM BKN035
     FM201400 33009KT P6SM SCT035=

USA.gov is the U.S. government's official web portal to all federal, state and local government web resources and services.